Time;durP1;ratioP1;P1;durP2;ratioP2;P2;SDS_P1;SDS_P2;PMS_P1;PMS_P2;Temp;Humidity;BMP_temperature;BMP_pressure;BME280_temperature;BME280_humidity;BME280_pressure;Samples;Min_cycle;Max_cycle;Signal;HPM_P1;HPM_P2
2022/06/21 00:00:06;;;;;;;;;;;;;;;;;;5118043;27;1049;-64
2022/06/21 00:02:32;;;;;;;;;;;;;;;;;;5117508;27;844;-65
2022/06/21 00:04:57;;;;;;;;;;;;;;;;;;5117684;27;923;-65
2022/06/21 00:07:24;;;;;;;;;;;;;;;;;;5115690;28;1202;-65
2022/06/21 00:09:49;;;;;;;;;;;;;;;;;;5117341;27;864;-65
2022/06/21 00:12:14;;;;;;;;;;;;;;;;;;5117415;27;891;-65
2022/06/21 00:14:41;;;;;;;;;;;;;;;;;;5117375;27;1959;-66
2022/06/21 00:17:10;;;;;;;;;;;;;;;;;;5117718;28;896;-65
2022/06/21 00:19:37;;;;;;;;;;;;;;;;;;5128133;27;1295;-65
2022/06/21 00:22:02;;;;;;;;;;;;;;;;;;5121225;27;1135;-65
2022/06/21 00:24:28;;;;;;;;;;;;;;;;;;5117928;27;1099;-65
2022/06/21 00:26:53;;;;;;;;;;;;;;;;;;5116210;28;1194;-65
2022/06/21 00:29:18;;;;;;;;;;;;;;;;;;5117667;27;990;-65
2022/06/21 00:31:48;;;;;;;;;;;;;;;;;;5117209;27;1143;-64
2022/06/21 00:34:17;;;;;;;;;;;;;;;;;;5118048;27;1965;-65
2022/06/21 00:36:43;;;;;;;;;;;;;;;;;;5117457;27;899;-65
2022/06/21 00:39:11;;;;;;;;;;;;;;;;;;5116065;28;1363;-65
2022/06/21 00:41:36;;;;;;;;;;;;;;;;;;5117510;27;922;-65
2022/06/21 00:44:03;;;;;;;;;;;;;;;;;;5116897;27;824;-65
2022/06/21 00:46:32;;;;;;;;;;;;;;;;;;5116125;27;844;-64
2022/06/21 00:48:58;;;;;;;;;;;;;;;;;;5113587;28;974;-65
2022/06/21 00:51:27;;;;;;;;;;;;;;;;;;5113518;28;856;-65
2022/06/21 00:53:59;;;;;;;;;;;;;;;;;;5111852;28;1966;-65
2022/06/21 00:56:31;;;;;;;;;;;;;;;;;;5113413;28;832;-65
2022/06/21 00:58:56;;;;;;;;;;;;;;;;;;5113439;28;987;-64
2022/06/21 01:01:26;;;;;;;;;;;;;;;;;;5113903;27;931;-64
2022/06/21 01:04:18;;;;;;;;;;;;;;;;;;5113887;27;868;-64
2022/06/21 01:06:45;;;;;;;;;;;;;;;;;;5088149;28;1535;-64
2022/06/21 01:09:40;;;;;;;;;;;;;;;;;;5113874;28;884;-65
2022/06/21 01:12:11;;;;;;;;;;;;;;;;;;5099194;28;1183;-65
2022/06/21 01:14:40;;;;;;;;;;;;;;;;;;5112877;28;1952;-65
2022/06/21 01:17:09;;;;;;;;;;;;;;;;;;5113322;28;907;-65
2022/06/21 01:19:37;;;;;;;;;;;;;;;;;;5112777;28;994;-65
2022/06/21 01:22:16;;;;;;;;;;;;;;;;;;5113597;28;1048;-65
2022/06/21 01:24:47;;;;;;;;;;;;;;;;;;5113028;28;863;-65
2022/06/21 01:27:12;;;;;;;;;;;;;;;;;;5111481;28;1379;-65
2022/06/21 01:29:38;;;;;;;;;;;;;;;;;;5111568;28;915;-65
2022/06/21 01:32:05;;;;;;;;;;;;;;;;;;5111087;28;1221;-65
2022/06/21 01:34:30;;;;;;;;;;;;;;;;;;5112537;27;1977;-65
2022/06/21 01:37:08;;;;;;;;;;;;;;;;;;5112504;28;880;-65
2022/06/21 01:39:36;;;;;;;;;;;;;;;;;;5112920;28;962;-65
2022/06/21 01:42:03;;;;;;;;;;;;;;;;;;5112901;28;923;-65
2022/06/21 01:44:31;;;;;;;;;;;;;;;;;;5112315;28;978;-65
2022/06/21 01:46:59;;;;;;;;;;;;;;;;;;5110687;28;1190;-65
2022/06/21 01:49:25;;;;;;;;;;;;;;;;;;5112528;28;986;-65
2022/06/21 01:51:57;;;;;;;;;;;;;;;;;;5112439;28;844;-65
2022/06/21 01:54:25;;;;;;;;;;;;;;;;;;5112971;28;1914;-65
2022/06/21 01:56:50;;;;;;;;;;;;;;;;;;5111016;28;1197;-65
2022/06/21 01:59:25;;;;;;;;;;;;;;;;;;5111942;28;796;-64
2022/06/21 02:01:56;;;;;;;;;;;;;;;;;;5112784;28;1065;-65
2022/06/21 02:04:24;;;;;;;;;;;;;;;;;;5112902;28;816;-65
2022/06/21 02:06:50;;;;;;;;;;;;;;;;;;5112421;28;907;-65
2022/06/21 02:09:19;;;;;;;;;;;;;;;;;;5111494;28;1146;-65
2022/06/21 02:12:00;;;;;;;;;;;;;;;;;;5112209;28;1022;-65
2022/06/21 02:14:29;;;;;;;;;;;;;;;;;;5112954;28;1914;-65
2022/06/21 02:16:58;;;;;;;;;;;;;;;;;;5112744;28;813;-65
2022/06/21 02:19:44;;;;;;;;;;;;;;;;;;5111297;28;1277;-65
2022/06/21 02:22:11;;;;;;;;;;;;;;;;;;5112306;28;1776;-65
2022/06/21 02:24:37;;;;;;;;;;;;;;;;;;5112161;28;734;-65
2022/06/21 02:27:04;;;;;;;;;;;;;;;;;;5111989;28;976;-65
2022/06/21 02:29:29;;;;;;;;;;;;;;;;;;5110739;28;889;-64
2022/06/21 02:31:56;;;;;;;;;;;;;;;;;;5111601;28;1318;-65
2022/06/21 02:34:27;;;;;;;;;;;;;;;;;;5110355;28;1980;-65
2022/06/21 02:36:55;;;;;;;;;;;;;;;;;;5111556;28;832;-64
2022/06/21 02:39:23;;;;;;;;;;;;;;;;;;5112229;28;903;-64
2022/06/21 02:41:50;;;;;;;;;;;;;;;;;;5110271;28;1355;-65
2022/06/21 02:44:15;;;;;;;;;;;;;;;;;;5112244;28;892;-65
2022/06/21 02:46:44;;;;;;;;;;;;;;;;;;5111806;28;884;-65
2022/06/21 02:49:09;;;;;;;;;;;;;;;;;;5110853;28;1336;-65
2022/06/21 02:51:39;;;;;;;;;;;;;;;;;;5111586;27;950;-65
2022/06/21 02:54:07;;;;;;;;;;;;;;;;;;5111960;28;1901;-65
2022/06/21 02:56:40;;;;;;;;;;;;;;;;;;5111618;28;906;-65
2022/06/21 02:59:05;;;;;;;;;;;;;;;;;;5111775;28;1053;-65
2022/06/21 03:01:39;;;;;;;;;;;;;;;;;;5111643;28;1014;-65
2022/06/21 03:04:05;;;;;;;;;;;;;;;;;;5112122;28;835;-65
2022/06/21 03:06:31;;;;;;;;;;;;;;;;;;5111737;28;836;-65
2022/06/21 03:09:07;;;;;;;;;;;;;;;;;;5110954;28;1189;-65
2022/06/21 03:11:40;;;;;;;;;;;;;;;;;;5111259;28;888;-66
2022/06/21 03:14:08;;;;;;;;;;;;;;;;;;5111323;28;1933;-65
2022/06/21 03:16:34;;;;;;;;;;;;;;;;;;5110884;28;954;-65
2022/06/21 03:19:01;;;;;;;;;;;;;;;;;;5110178;28;883;-65
2022/06/21 03:21:31;;;;;;;;;;;;;;;;;;5111358;28;1002;-66
2022/06/21 03:23:58;;;;;;;;;;;;;;;;;;5110566;28;879;-65
2022/06/21 03:26:24;;;;;;;;;;;;;;;;;;5111221;28;765;-66
2022/06/21 03:28:51;;;;;;;;;;;;;;;;;;5110402;28;906;-66
2022/06/21 03:31:20;;;;;;;;;;;;;;;;;;5109375;28;1303;-65
2022/06/21 03:33:47;;;;;;;;;;;;;;;;;;5110514;28;1914;-65
2022/06/21 03:36:14;;;;;;;;;;;;;;;;;;5111417;28;973;-65
2022/06/21 03:38:42;;;;;;;;;;;;;;;;;;5111108;28;935;-65
2022/06/21 03:43:59;;;;;;;;;;;;;;;;;;5111359;28;929;-65
2022/06/21 03:46:29;;;;;;;;;;;;;;;;;;5110081;28;1341;-65
2022/06/21 03:48:57;;;;;;;;;;;;;;;;;;5111119;28;801;-65
2022/06/21 03:51:26;;;;;;;;;;;;;;;;;;5110102;28;1197;-65
2022/06/21 03:53:56;;;;;;;;;;;;;;;;;;5110865;28;1976;-65
2022/06/21 03:56:32;;;;;;;;;;;;;;;;;;5111389;28;829;-65
2022/06/21 03:59:03;;;;;;;;;;;;;;;;;;5110392;28;746;-65
2022/06/21 04:01:47;;;;;;;;;;;;;;;;;;5110495;28;809;-65
2022/06/21 04:04:12;;;;;;;;;;;;;;;;;;5110632;28;889;-65
2022/06/21 04:06:38;;;;;;;;;;;;;;;;;;5110705;28;1116;-66
2022/06/21 04:09:29;;;;;;;;;;;;;;;;;;5109094;28;1233;-65
2022/06/21 04:12:01;;;;;;;;;;;;;;;;;;5107895;28;1146;-66
2022/06/21 04:14:50;;;;;;;;;;;;;;;;;;5109705;28;1979;-65
2022/06/21 04:17:15;;;;;;;;;;;;;;;;;;5104870;28;1012;-65
2022/06/21 04:19:40;;;;;;;;;;;;;;;;;;5109524;28;1198;-65
2022/06/21 04:22:10;;;;;;;;;;;;;;;;;;5110047;28;1430;-65
2022/06/21 04:24:35;;;;;;;;;;;;;;;;;;5113109;28;1167;-65
2022/06/21 04:27:10;;;;;;;;;;;;;;;;;;5114503;28;886;-65
2022/06/21 04:29:41;;;;;;;;;;;;;;;;;;5112881;28;1162;-65
2022/06/21 04:32:35;;;;;;;;;;;;;;;;;;5112833;28;1261;-65
2022/06/21 04:35:12;;;;;;;;;;;;;;;;;;5104453;28;1910;-65
2022/06/21 04:37:44;;;;;;;;;;;;;;;;;;5114436;28;900;-65
2022/06/21 04:40:14;;;;;;;;;;;;;;;;;;5114956;28;876;-65
2022/06/21 04:42:56;;;;;;;;;;;;;;;;;;5115074;28;841;-65
2022/06/21 04:45:25;;;;;;;;;;;;;;;;;;5113758;28;1373;-65
2022/06/21 04:48:13;;;;;;;;;;;;;;;;;;5114374;28;872;-65
2022/06/21 04:50:51;;;;;;;;;;;;;;;;;;5115580;28;856;-66
2022/06/21 04:53:16;;;;;;;;;;;;;;;;;;5112157;28;1955;-65
2022/06/21 04:56:02;;;;;;;;;;;;;;;;;;5112359;28;1234;-65
2022/06/21 04:58:27;;;;;;;;;;;;;;;;;;5112638;27;1128;-65
2022/06/21 05:00:53;;;;;;;;;;;;;;;;;;5115279;28;789;-65
2022/06/21 05:03:28;;;;;;;;;;;;;;;;;;5120709;27;1119;-65
2022/06/21 05:05:53;;;;;;;;;;;;;;;;;;5136204;27;1142;-65
2022/06/21 05:08:21;;;;;;;;;;;;;;;;;;5132998;27;1221;-65
2022/06/21 05:10:50;;;;;;;;;;;;;;;;;;5133060;27;1158;-65
2022/06/21 05:13:18;;;;;;;;;;;;;;;;;;5135393;27;1969;-65
2022/06/21 05:15:43;;;;;;;;;;;;;;;;;;5133061;27;1242;-66
2022/06/21 05:18:17;;;;;;;;;;;;;;;;;;5134608;27;621;-65
2022/06/21 05:20:53;;;;;;;;;;;;;;;;;;5134622;27;855;-65
2022/06/21 05:23:20;;;;;;;;;;;;;;;;;;5134445;27;824;-65
2022/06/21 05:25:46;;;;;;;;;;;;;;;;;;5134254;27;998;-65
2022/06/21 05:28:17;;;;;;;;;;;;;;;;;;5132770;27;917;-65
2022/06/21 05:30:48;;;;;;;;;;;;;;;;;;5134010;27;1426;-66
2022/06/21 05:33:17;;;;;;;;;;;;;;;;;;5133668;27;1910;-65
2022/06/21 05:35:43;;;;;;;;;;;;;;;;;;5134210;27;850;-65
2022/06/21 05:38:16;;;;;;;;;;;;;;;;;;5133761;27;926;-66
2022/06/21 05:40:50;;;;;;;;;;;;;;;;;;5133646;27;1002;-65
2022/06/21 05:43:20;;;;;;;;;;;;;;;;;;5133633;27;903;-65
2022/06/21 05:45:48;;;;;;;;;;;;;;;;;;5133369;27;804;-65
2022/06/21 05:48:19;;;;;;;;;;;;;;;;;;5131417;27;1253;-65
2022/06/21 05:50:45;;;;;;;;;;;;;;;;;;5114399;27;1927;-66
2022/06/21 05:53:14;;;;;;;;;;;;;;;;;;5109970;27;1983;-65
2022/06/21 05:55:42;;;;;;;;;;;;;;;;;;5110323;27;1171;-65
2022/06/21 05:58:14;;;;;;;;;;;;;;;;;;5126264;27;1171;-66
2022/06/21 06:00:49;;;;;;;;;;;;;;;;;;5133398;27;993;-66
2022/06/21 06:03:23;;;;;;;;;;;;;;;;;;5133411;27;882;-66
2022/06/21 06:05:49;;;;;;;;;;;;;;;;;;5132866;27;1228;-66
2022/06/21 06:08:26;;;;;;;;;;;;;;;;;;5133138;27;879;-66
2022/06/21 06:10:51;;;;;;;;;;;;;;;;;;5132976;27;939;-65
2022/06/21 06:13:19;;;;;;;;;;;;;;;;;;5132836;27;1914;-65
2022/06/21 06:15:52;;;;;;;;;;;;;;;;;;5132708;27;922;-66
2022/06/21 06:18:17;;;;;;;;;;;;;;;;;;5132917;27;777;-65
2022/06/21 06:20:47;;;;;;;;;;;;;;;;;;5132406;27;796;-65
2022/06/21 06:23:12;;;;;;;;;;;;;;;;;;5132613;27;927;-65
2022/06/21 06:25:42;;;;;;;;;;;;;;;;;;5132467;27;841;-65
2022/06/21 06:28:20;;;;;;;;;;;;;;;;;;5131496;27;914;-65
2022/06/21 06:30:47;;;;;;;;;;;;;;;;;;5131801;27;1240;-65
2022/06/21 06:33:20;;;;;;;;;;;;;;;;;;5131940;27;1975;-66
2022/06/21 06:35:47;;;;;;;;;;;;;;;;;;5132056;27;903;-65
2022/06/21 06:38:14;;;;;;;;;;;;;;;;;;5131709;27;982;-65
2022/06/21 06:40:42;;;;;;;;;;;;;;;;;;5131006;27;1421;-65
2022/06/21 06:43:12;;;;;;;;;;;;;;;;;;5131953;27;808;-65
2022/06/21 06:45:40;;;;;;;;;;;;;;;;;;5131381;27;923;-65
2022/06/21 06:48:11;;;;;;;;;;;;;;;;;;5131966;27;957;-66
2022/06/21 06:50:40;;;;;;;;;;;;;;;;;;5130104;27;1415;-65
2022/06/21 06:53:24;;;;;;;;;;;;;;;;;;5131827;27;1906;-66
2022/06/21 06:55:58;;;;;;;;;;;;;;;;;;5130473;27;1268;-66
2022/06/21 06:58:24;;;;;;;;;;;;;;;;;;5131936;27;1076;-66
2022/06/21 07:00:53;;;;;;;;;;;;;;;;;;5131393;27;891;-66
2022/06/21 07:03:20;;;;;;;;;;;;;;;;;;5131885;27;836;-66
2022/06/21 07:06:02;;;;;;;;;;;;;;;;;;5132451;27;827;-66
2022/06/21 07:08:43;;;;;;;;;;;;;;;;;;5132262;27;1178;-66
2022/06/21 07:11:29;;;;;;;;;;;;;;;;;;5132391;27;820;-66
2022/06/21 07:13:56;;;;;;;;;;;;;;;;;;5099879;27;1901;-65
2022/06/21 07:16:23;;;;;;;;;;;;;;;;;;5132771;27;860;-66
2022/06/21 07:18:53;;;;;;;;;;;;;;;;;;5130898;27;1135;-66
2022/06/21 07:21:20;;;;;;;;;;;;;;;;;;5132502;27;859;-66
2022/06/21 07:23:45;;;;;;;;;;;;;;;;;;5132100;27;839;-66
2022/06/21 07:26:14;;;;;;;;;;;;;;;;;;5130368;27;1236;-66
2022/06/21 07:28:42;;;;;;;;;;;;;;;;;;5132040;27;958;-65
2022/06/21 07:31:14;;;;;;;;;;;;;;;;;;5131103;27;1083;-66
2022/06/21 07:34:08;;;;;;;;;;;;;;;;;;5131445;27;2266;-65
2022/06/21 07:36:38;;;;;;;;;;;;;;;;;;5117739;27;1123;-66
2022/06/21 07:39:09;;;;;;;;;;;;;;;;;;5131454;27;965;-66
2022/06/21 07:41:37;;;;;;;;;;;;;;;;;;5130301;28;1264;-66
2022/06/21 07:44:06;;;;;;;;;;;;;;;;;;5130316;28;1376;-65
2022/06/21 07:46:42;;;;;;;;;;;;;;;;;;5131460;27;907;-66
2022/06/21 07:49:14;;;;;;;;;;;;;;;;;;5131792;27;900;-65
2022/06/21 07:51:46;;;;;;;;;;;;;;;;;;5131916;27;809;-66
2022/06/21 07:54:33;;;;;;;;;;;;;;;;;;5131766;27;1966;-65
2022/06/21 07:57:07;;;;;;;;;;;;;;;;;;5132105;27;1263;-66
2022/06/21 07:59:36;;;;;;;;;;;;;;;;;;5135179;27;821;-65
2022/06/21 08:07:33;;;;;;;;;;;;;;;;;;5135279;27;770;-65
2022/06/21 08:10:19;;;;;;;;;;;;;;;;;;5135045;27;907;-65
2022/06/21 08:12:45;;;;;;;;;;;;;;;;;;5134377;27;1154;-65
2022/06/21 08:15:10;;;;;;;;;;;;;;;;;;5116080;27;1909;-65
2022/06/21 08:17:38;;;;;;;;;;;;;;;;;;5134350;27;828;-65
2022/06/21 08:20:15;;;;;;;;;;;;;;;;;;5134450;27;871;-65
2022/06/21 08:22:46;;;;;;;;;;;;;;;;;;5134532;27;962;-65
2022/06/21 08:25:20;;;;;;;;;;;;;;;;;;5135040;27;1014;-65
2022/06/21 08:27:49;;;;;;;;;;;;;;;;;;5134443;27;981;-65
2022/06/21 08:30:17;;;;;;;;;;;;;;;;;;5134010;27;1344;-65
2022/06/21 08:32:42;;;;;;;;;;;;;;;;;;5134201;27;832;-64
2022/06/21 08:35:26;;;;;;;;;;;;;;;;;;5134631;27;1918;-64
2022/06/21 08:38:12;;;;;;;;;;;;;;;;;;5134817;27;895;-65
2022/06/21 08:40:52;;;;;;;;;;;;;;;;;;5123666;27;1312;-65
2022/06/21 08:43:35;;;;;;;;;;;;;;;;;;5134273;27;907;-65
2022/06/21 08:46:23;;;;;;;;;;;;;;;;;;5134927;27;813;-65
2022/06/21 08:48:48;;;;;;;;;;;;;;;;;;5095313;27;1271;-65
2022/06/21 08:51:14;;;;;;;;;;;;;;;;;;5133397;27;1221;-65
2022/06/21 08:53:45;;;;;;;;;;;;;;;;;;5134467;27;1893;-65
2022/06/21 08:56:16;;;;;;;;;;;;;;;;;;5135192;27;1038;-65
2022/06/21 08:58:42;;;;;;;;;;;;;;;;;;5134996;27;782;-65
2022/06/21 09:01:26;;;;;;;;;;;;;;;;;;5135402;27;919;-65
2022/06/21 09:04:09;;;;;;;;;;;;;;;;;;5134856;27;820;-65
2022/06/21 09:06:35;;;;;;;;;;;;;;;;;;5134350;27;940;-65
2022/06/21 09:09:07;;;;;;;;;;;;;;;;;;5131880;27;1307;-65
2022/06/21 09:11:55;;;;;;;;;;;;;;;;;;5133918;27;943;-64
2022/06/21 09:14:23;;;;;;;;;;;;;;;;;;5121639;27;1929;-65
2022/06/21 09:16:59;;;;;;;;;;;;;;;;;;5133357;27;1046;-65
2022/06/21 09:19:24;;;;;;;;;;;;;;;;;;5131683;27;1284;-65
2022/06/21 09:22:09;;;;;;;;;;;;;;;;;;5131903;27;1301;-65
2022/06/21 09:24:38;;;;;;;;;;;;;;;;;;5133804;27;863;-65
2022/06/21 09:27:09;;;;;;;;;;;;;;;;;;5132750;27;1316;-64
2022/06/21 09:29:53;;;;;;;;;;;;;;;;;;5134004;27;896;-65
2022/06/21 09:32:34;;;;;;;;;;;;;;;;;;5133707;27;982;-64
2022/06/21 09:35:18;;;;;;;;;;;;;;;;;;5133430;27;1906;-65
2022/06/21 09:37:46;;;;;;;;;;;;;;;;;;5133415;27;990;-65
2022/06/21 09:40:14;;;;;;;;;;;;;;;;;;5133786;27;816;-65
2022/06/21 09:42:47;;;;;;;;;;;;;;;;;;5133235;27;856;-65
2022/06/21 09:45:17;;;;;;;;;;;;;;;;;;5133558;27;1061;-65
2022/06/21 09:47:54;;;;;;;;;;;;;;;;;;5133068;27;907;-65
2022/06/21 09:50:24;;;;;;;;;;;;;;;;;;5132069;27;1349;-65
2022/06/21 09:53:02;;;;;;;;;;;;;;;;;;5131113;27;1324;-65
2022/06/21 09:55:33;;;;;;;;;;;;;;;;;;5133353;27;840;-65
2022/06/21 09:58:05;;;;;;;;;;;;;;;;;;5133052;27;887;-65
2022/06/21 10:00:37;;;;;;;;;;;;;;;;;;5133068;27;828;-65
2022/06/21 10:03:17;;;;;;;;;;;;;;;;;;5132898;27;844;-65
2022/06/21 10:05:53;;;;;;;;;;;;;;;;;;5132548;27;912;-65
2022/06/21 10:08:27;;;;;;;;;;;;;;;;;;5133424;27;927;-65
2022/06/21 10:11:03;;;;;;;;;;;;;;;;;;5132457;27;927;-65
2022/06/21 10:13:47;;;;;;;;;;;;;;;;;;5131620;27;1893;-65
2022/06/21 10:16:31;;;;;;;;;;;;;;;;;;5133181;27;817;-65
2022/06/21 10:19:02;;;;;;;;;;;;;;;;;;5131246;27;852;-65
2022/06/21 10:21:30;;;;;;;;;;;;;;;;;;5131865;27;1003;-65
2022/06/21 10:24:22;;;;;;;;;;;;;;;;;;5132879;27;825;-65
2022/06/21 10:27:06;;;;;;;;;;;;;;;;;;5132434;27;887;-65
2022/06/21 10:29:35;;;;;;;;;;;;;;;;;;5131577;27;1181;-65
2022/06/21 10:32:00;;;;;;;;;;;;;;;;;;5131533;27;1316;-65
2022/06/21 10:34:31;;;;;;;;;;;;;;;;;;5133628;27;1971;-65
2022/06/21 10:37:11;;;;;;;;;;;;;;;;;;5133355;27;851;-65
2022/06/21 10:39:36;;;;;;;;;;;;;;;;;;5132196;27;1284;-65
2022/06/21 10:42:47;;;;;;;;;;;;;;;;;;5133418;27;891;-65
2022/06/21 10:45:21;;;;;;;;;;;;;;;;;;5133860;27;903;-65
2022/06/21 10:48:22;;;;;;;;;;;;;;;;;;5132881;27;946;-65
2022/06/21 10:50:58;;;;;;;;;;;;;;;;;;5052301;28;1400;-65
2022/06/21 10:53:29;;;;;;;;;;;;;;;;;;5126113;27;1893;-65
2022/06/21 10:59:00;;;;;;;;;;;;;;;;;;5132063;27;684;-65
2022/06/21 11:01:26;;;;;;;;;;;;;;;;;;5132382;27;923;-65
2022/06/21 11:04:09;;;;;;;;;;;;;;;;;;5130811;27;1245;-65
2022/06/21 11:06:53;;;;;;;;;;;;;;;;;;5131957;27;840;-65
2022/06/21 11:09:20;;;;;;;;;;;;;;;;;;5132369;27;919;-65
2022/06/21 11:11:55;;;;;;;;;;;;;;;;;;5131848;27;847;-65
2022/06/21 11:14:33;;;;;;;;;;;;;;;;;;5130980;27;1906;-64
2022/06/21 11:16:58;;;;;;;;;;;;;;;;;;5130275;27;1592;-65
2022/06/21 11:19:29;;;;;;;;;;;;;;;;;;5132226;27;840;-65
2022/06/21 11:21:54;;;;;;;;;;;;;;;;;;5130357;27;1669;-64
2022/06/21 11:24:25;;;;;;;;;;;;;;;;;;5130643;27;1317;-65
2022/06/21 11:27:14;;;;;;;;;;;;;;;;;;5131046;27;1033;-65
2022/06/21 11:29:58;;;;;;;;;;;;;;;;;;5122637;27;1127;-65
2022/06/21 11:32:42;;;;;;;;;;;;;;;;;;5130827;27;1047;-65
2022/06/21 11:35:13;;;;;;;;;;;;;;;;;;5130628;27;1906;-65
2022/06/21 11:37:57;;;;;;;;;;;;;;;;;;5131135;27;892;-65
2022/06/21 11:40:40;;;;;;;;;;;;;;;;;;5131227;27;773;-65
2022/06/21 11:43:14;;;;;;;;;;;;;;;;;;5131156;27;999;-65
2022/06/21 11:45:50;;;;;;;;;;;;;;;;;;5130999;27;836;-65
2022/06/21 11:48:30;;;;;;;;;;;;;;;;;;5130124;27;1480;-66
2022/06/21 11:50:55;;;;;;;;;;;;;;;;;;5130875;27;1006;-65
2022/06/21 11:53:21;;;;;;;;;;;;;;;;;;5129821;28;1953;-65
2022/06/21 11:55:48;;;;;;;;;;;;;;;;;;5106980;28;1408;-65
2022/06/21 11:58:21;;;;;;;;;;;;;;;;;;5109359;28;1759;-65
2022/06/21 12:01:03;;;;;;;;;;;;;;;;;;5098014;28;1926;-65
2022/06/21 12:03:35;;;;;;;;;;;;;;;;;;5098933;28;1851;-66
2022/06/21 12:06:05;;;;;;;;;;;;;;;;;;5102250;28;1898;-65
2022/06/21 12:08:38;;;;;;;;;;;;;;;;;;5098631;28;1583;-65
2022/06/21 12:11:25;;;;;;;;;;;;;;;;;;5110093;28;1190;-65
2022/06/21 12:13:50;;;;;;;;;;;;;;;;;;5109970;28;1965;-66
2022/06/21 12:16:19;;;;;;;;;;;;;;;;;;5117675;28;1151;-65
2022/06/21 12:18:47;;;;;;;;;;;;;;;;;;5130833;28;1178;-65
2022/06/21 12:21:15;;;;;;;;;;;;;;;;;;5131845;27;919;-65
2022/06/21 12:23:44;;;;;;;;;;;;;;;;;;5131633;27;915;-66
2022/06/21 12:26:24;;;;;;;;;;;;;;;;;;5131064;27;844;-65
2022/06/21 12:28:50;;;;;;;;;;;;;;;;;;5130936;27;936;-65
2022/06/21 12:31:28;;;;;;;;;;;;;;;;;;5130538;27;1301;-65
2022/06/21 12:34:13;;;;;;;;;;;;;;;;;;5130613;27;1968;-66
2022/06/21 12:36:44;;;;;;;;;;;;;;;;;;5129434;28;1676;-65
2022/06/21 12:39:19;;;;;;;;;;;;;;;;;;5129790;28;1493;-66
2022/06/21 12:41:48;;;;;;;;;;;;;;;;;;5131158;27;879;-65
2022/06/21 12:44:13;;;;;;;;;;;;;;;;;;5133701;27;1014;-66
2022/06/21 12:46:48;;;;;;;;;;;;;;;;;;5135049;27;824;-65
2022/06/21 12:49:13;;;;;;;;;;;;;;;;;;5135013;27;828;-65
2022/06/21 12:51:56;;;;;;;;;;;;;;;;;;5134652;27;1041;-64
2022/06/21 12:54:48;;;;;;;;;;;;;;;;;;5134830;27;1973;-64
2022/06/21 12:57:27;;;;;;;;;;;;;;;;;;5110290;27;1425;-64
2022/06/21 12:59:52;;;;;;;;;;;;;;;;;;5132756;27;1097;-65
2022/06/21 13:02:36;;;;;;;;;;;;;;;;;;5134554;27;907;-64
2022/06/21 13:05:13;;;;;;;;;;;;;;;;;;5133765;27;1057;-64
2022/06/21 13:07:38;;;;;;;;;;;;;;;;;;5134112;27;990;-64
2022/06/21 13:10:13;;;;;;;;;;;;;;;;;;5133629;27;876;-64
2022/06/21 13:12:48;;;;;;;;;;;;;;;;;;5134557;27;887;-65
2022/06/21 13:15:22;;;;;;;;;;;;;;;;;;5134058;27;1991;-64
2022/06/21 13:18:08;;;;;;;;;;;;;;;;;;5134018;27;769;-64
2022/06/21 13:20:44;;;;;;;;;;;;;;;;;;5134090;27;828;-65
2022/06/21 13:23:25;;;;;;;;;;;;;;;;;;5133786;27;852;-64
2022/06/21 13:25:54;;;;;;;;;;;;;;;;;;5131803;27;1178;-64
2022/06/21 13:28:28;;;;;;;;;;;;;;;;;;5134118;27;1021;-64
2022/06/21 13:31:00;;;;;;;;;;;;;;;;;;5133273;27;1424;-64
2022/06/21 13:33:34;;;;;;;;;;;;;;;;;;5133839;27;1914;-64
2022/06/21 13:36:19;;;;;;;;;;;;;;;;;;5133822;27;1065;-64
2022/06/21 13:38:53;;;;;;;;;;;;;;;;;;5133437;27;899;-63
2022/06/21 13:44:21;;;;;;;;;;;;;;;;;;5134043;27;716;-63
2022/06/21 13:46:48;;;;;;;;;;;;;;;;;;5133758;27;995;-63
2022/06/21 13:49:35;;;;;;;;;;;;;;;;;;5133998;27;895;-63
2022/06/21 13:52:19;;;;;;;;;;;;;;;;;;5133943;27;1374;-63
2022/06/21 13:54:50;;;;;;;;;;;;;;;;;;5133476;27;1948;-63
2022/06/21 13:57:35;;;;;;;;;;;;;;;;;;5134122;27;824;-63
2022/06/21 14:00:01;;;;;;;;;;;;;;;;;;5132161;27;947;-64
2022/06/21 14:02:39;;;;;;;;;;;;;;;;;;5133988;27;840;-64
2022/06/21 14:05:11;;;;;;;;;;;;;;;;;;5133609;27;899;-64
2022/06/21 14:07:55;;;;;;;;;;;;;;;;;;5132390;27;1456;-64
2022/06/21 14:10:36;;;;;;;;;;;;;;;;;;5131827;27;1249;-64
2022/06/21 14:13:06;;;;;;;;;;;;;;;;;;5132607;27;837;-64
2022/06/21 14:15:41;;;;;;;;;;;;;;;;;;5133164;27;1949;-64
2022/06/21 14:18:17;;;;;;;;;;;;;;;;;;5133204;27;873;-64
2022/06/21 14:21:03;;;;;;;;;;;;;;;;;;5132849;27;864;-64
2022/06/21 14:23:32;;;;;;;;;;;;;;;;;;5122444;27;1363;-64
2022/06/21 14:26:00;;;;;;;;;;;;;;;;;;5132685;27;1002;-64
2022/06/21 14:28:32;;;;;;;;;;;;;;;;;;5131586;27;901;-64
2022/06/21 14:31:10;;;;;;;;;;;;;;;;;;5131785;27;1193;-64
2022/06/21 14:33:42;;;;;;;;;;;;;;;;;;5131239;27;1906;-64
2022/06/21 14:36:07;;;;;;;;;;;;;;;;;;5132518;27;852;-64
2022/06/21 14:38:45;;;;;;;;;;;;;;;;;;5133055;27;1057;-64
2022/06/21 14:41:21;;;;;;;;;;;;;;;;;;5132508;27;848;-64
2022/06/21 14:43:58;;;;;;;;;;;;;;;;;;5131708;27;1030;-64
2022/06/21 14:46:44;;;;;;;;;;;;;;;;;;5132135;27;836;-64
2022/06/21 14:49:20;;;;;;;;;;;;;;;;;;5132063;27;1214;-64
2022/06/21 14:51:52;;;;;;;;;;;;;;;;;;5132103;27;1250;-64
2022/06/21 14:54:32;;;;;;;;;;;;;;;;;;5131867;27;1905;-64
2022/06/21 14:57:05;;;;;;;;;;;;;;;;;;5131780;27;912;-64
2022/06/21 14:59:31;;;;;;;;;;;;;;;;;;5131984;27;1118;-64
2022/06/21 15:02:08;;;;;;;;;;;;;;;;;;5131991;27;907;-64
2022/06/21 15:04:42;;;;;;;;;;;;;;;;;;5132469;27;1015;-64
2022/06/21 15:07:25;;;;;;;;;;;;;;;;;;5131189;27;966;-64
2022/06/21 15:09:54;;;;;;;;;;;;;;;;;;5131309;27;894;-64
2022/06/21 15:12:22;;;;;;;;;;;;;;;;;;5131696;27;1026;-64
2022/06/21 15:15:02;;;;;;;;;;;;;;;;;;5131139;27;1948;-64
2022/06/21 15:17:37;;;;;;;;;;;;;;;;;;5131681;27;886;-65
2022/06/21 15:20:04;;;;;;;;;;;;;;;;;;5129819;27;1351;-64
2022/06/21 15:22:45;;;;;;;;;;;;;;;;;;5129980;27;1737;-63
2022/06/21 15:25:27;;;;;;;;;;;;;;;;;;5131766;27;903;-63
2022/06/21 15:28:09;;;;;;;;;;;;;;;;;;5131956;27;958;-63
2022/06/21 15:30:42;;;;;;;;;;;;;;;;;;5132032;27;1376;-63
2022/06/21 15:33:14;;;;;;;;;;;;;;;;;;5132017;27;845;-63
2022/06/21 15:35:39;;;;;;;;;;;;;;;;;;5130612;27;1189;-63
2022/06/21 15:38:06;;;;;;;;;;;;;;;;;;5132813;27;828;-63
2022/06/21 15:40:41;;;;;;;;;;;;;;;;;;5132514;27;903;-63
2022/06/21 15:43:22;;;;;;;;;;;;;;;;;;5132178;27;871;-64
2022/06/21 15:45:52;;;;;;;;;;;;;;;;;;5131808;27;835;-64
2022/06/21 15:51:18;;;;;;;;;;;;;;;;;;5131872;27;639;-64
2022/06/21 15:53:44;;;;;;;;;;;;;;;;;;5131636;27;1979;-64
2022/06/21 15:56:22;;;;;;;;;;;;;;;;;;5131752;27;852;-64
2022/06/21 15:58:53;;;;;;;;;;;;;;;;;;5129887;27;1205;-64
2022/06/21 16:01:24;;;;;;;;;;;;;;;;;;5124590;28;1142;-63
2022/06/21 16:03:59;;;;;;;;;;;;;;;;;;5130579;28;1269;-63
2022/06/21 16:06:33;;;;;;;;;;;;;;;;;;5130748;27;1138;-63
2022/06/21 16:09:01;;;;;;;;;;;;;;;;;;5130426;27;887;-64
2022/06/21 16:11:27;;;;;;;;;;;;;;;;;;5132133;27;852;-63
2022/06/21 16:13:54;;;;;;;;;;;;;;;;;;5131776;27;1874;-63
2022/06/21 16:16:22;;;;;;;;;;;;;;;;;;5131694;27;887;-63
2022/06/21 16:18:52;;;;;;;;;;;;;;;;;;5133257;27;985;-63
2022/06/21 16:21:33;;;;;;;;;;;;;;;;;;5134736;27;1205;-63
2022/06/21 16:24:10;;;;;;;;;;;;;;;;;;5135579;27;918;-63
2022/06/21 16:26:47;;;;;;;;;;;;;;;;;;5136049;27;785;-63
2022/06/21 16:29:24;;;;;;;;;;;;;;;;;;5135581;27;925;-64
2022/06/21 16:34:55;;;;;;;;;;;;;;;;;;5135751;27;1906;-64
2022/06/21 16:37:25;;;;;;;;;;;;;;;;;;5135703;27;863;-64
2022/06/21 16:42:54;;;;;;;;;;;;;;;;;;5135731;27;820;-64
2022/06/21 16:43:06;;;;;;;;;;;;;;;;;;5130249;27;1683;-64
2022/06/21 16:45:38;;;;;;;;;;;;;;;;;;5134759;27;890;-64
2022/06/21 16:48:12;;;;;;;;;;;;;;;;;;5135342;27;895;-64
2022/06/21 16:50:46;;;;;;;;;;;;;;;;;;5135223;27;891;-65
2022/06/21 16:53:20;;;;;;;;;;;;;;;;;;5136504;27;888;-64
2022/06/21 16:55:55;;;;;;;;;;;;;;;;;;5136321;27;918;-64
2022/06/21 16:58:21;;;;;;;;;;;;;;;;;;5136133;27;824;-63
2022/06/21 17:00:53;;;;;;;;;;;;;;;;;;5134134;27;1173;-64
2022/06/21 17:03:18;;;;;;;;;;;;;;;;;;5135774;27;804;-64
2022/06/21 17:05:45;;;;;;;;;;;;;;;;;;5135158;27;915;-64
2022/06/21 17:08:25;;;;;;;;;;;;;;;;;;5134107;27;911;-64
2022/06/21 17:13:36;;;;;;;;;;;;;;;;;;5135218;27;1897;-64
2022/06/21 17:16:19;;;;;;;;;;;;;;;;;;5134605;27;919;-64
2022/06/21 17:18:54;;;;;;;;;;;;;;;;;;5134358;27;828;-65
2022/06/21 17:21:26;;;;;;;;;;;;;;;;;;5134533;27;848;-64
2022/06/21 17:24:08;;;;;;;;;;;;;;;;;;5134445;27;931;-65
2022/06/21 17:26:40;;;;;;;;;;;;;;;;;;5133946;27;824;-65
2022/06/21 17:29:08;;;;;;;;;;;;;;;;;;5133940;27;1060;-65
2022/06/21 17:31:42;;;;;;;;;;;;;;;;;;5133344;27;1249;-64
2022/06/21 17:34:15;;;;;;;;;;;;;;;;;;5133921;27;1897;-64
2022/06/21 17:36:49;;;;;;;;;;;;;;;;;;5133887;27;821;-64
2022/06/21 17:39:23;;;;;;;;;;;;;;;;;;5134135;27;954;-64
2022/06/21 17:41:48;;;;;;;;;;;;;;;;;;5132120;27;1202;-64
2022/06/21 17:44:18;;;;;;;;;;;;;;;;;;5133489;27;868;-64
2022/06/21 17:46:48;;;;;;;;;;;;;;;;;;5133157;27;820;-64
2022/06/21 17:49:21;;;;;;;;;;;;;;;;;;5133499;27;998;-64
2022/06/21 17:51:49;;;;;;;;;;;;;;;;;;5133219;27;847;-65
2022/06/21 17:54:28;;;;;;;;;;;;;;;;;;5133577;27;1949;-65
2022/06/21 17:57:00;;;;;;;;;;;;;;;;;;5133563;27;903;-64
2022/06/21 17:59:27;;;;;;;;;;;;;;;;;;5131890;27;804;-64
2022/06/21 18:01:52;;;;;;;;;;;;;;;;;;5132862;27;1435;-65
2022/06/21 18:04:17;;;;;;;;;;;;;;;;;;5131951;27;1420;-65
2022/06/21 18:06:58;;;;;;;;;;;;;;;;;;5132626;27;840;-64
2022/06/21 18:09:23;;;;;;;;;;;;;;;;;;5131843;27;1154;-64
2022/06/21 18:11:55;;;;;;;;;;;;;;;;;;5132728;27;862;-65